SCX8772 KSEA-KBFI
Flight info
| Callsign | SCX8772 |
|---|---|
| Flight time | 0h -13m |
| Altitude | 5000 |
| Route | DCT NEZUG DCT DUANE DCT |
| Aircraft | B738/M-SDE2E3FGHIRWY/LB1 |
Departure
| Time | 2026-05-07 13:23 |
|---|---|
| Airport | Seattle–Tacoma International Airport (KSEA) |
Arrival
| Time | 2026-05-07 13:10 |
|---|---|
| Airport | King County International Airport - Boeing Field (KBFI) |
| Time | Latitude | Longitude | Altitude | Speed | Heading |
|---|---|---|---|---|---|
| 2026-05-07 13:10 | 47.45355 | -122.30386 | 423 ft | 0 kts | 125° |
| 2026-05-07 13:17 | 47.45366 | -122.30410 | 417 ft | 3 kts | 125° |
| 2026-05-07 13:18 | 47.45379 | -122.30440 | 419 ft | 4 kts | 99° |
| 2026-05-07 13:18 | 47.45382 | -122.30480 | 412 ft | 4 kts | 73° |
| 2026-05-07 13:18 | 47.45365 | -122.30508 | 415 ft | 4 kts | 7° |
| 2026-05-07 13:18 | 47.45338 | -122.30504 | 416 ft | 4 kts | 359° |
| 2026-05-07 13:19 | 47.45336 | -122.30504 | 414 ft | 0 kts | 0° |
| 2026-05-07 13:20 | 47.45342 | -122.30504 | 416 ft | 5 kts | 0° |
| 2026-05-07 13:20 | 47.45394 | -122.30504 | 415 ft | 8 kts | 0° |
| 2026-05-07 13:21 | 47.45450 | -122.30504 | 417 ft | 8 kts | 0° |
| 2026-05-07 13:21 | 47.45508 | -122.30503 | 425 ft | 10 kts | 0° |
| 2026-05-07 13:21 | 47.45589 | -122.30503 | 426 ft | 14 kts | 0° |
| 2026-05-07 13:21 | 47.45699 | -122.30502 | 435 ft | 18 kts | 0° |
| 2026-05-07 13:22 | 47.45846 | -122.30500 | 436 ft | 24 kts | 0° |
| 2026-05-07 13:22 | 47.46026 | -122.30497 | 435 ft | 27 kts | 1° |
| 2026-05-07 13:22 | 47.46211 | -122.30493 | 436 ft | 25 kts | 0° |
| 2026-05-07 13:22 | 47.46353 | -122.30609 | 430 ft | 21 kts | 307° |
| 2026-05-07 13:23 | 47.46360 | -122.30756 | 438 ft | 16 kts | 220° |
| 2026-05-07 13:23 | 47.46126 | -122.30778 | 430 ft | 85 kts | 180° |
| 2026-05-07 13:23 | 47.45145 | -122.30775 | 640 ft | 182 kts | 180° |
| 2026-05-07 13:23 | 47.43813 | -122.30808 | 1871 ft | 197 kts | 181° |
| 2026-05-07 13:24 | 47.42478 | -122.30901 | 3449 ft | 190 kts | 192° |
| 2026-05-07 13:24 | 47.41324 | -122.31893 | 4623 ft | 206 kts | 226° |
| 2026-05-07 13:24 | 47.40594 | -122.33888 | 4990 ft | 243 kts | 258° |
| 2026-05-07 13:24 | 47.40621 | -122.36508 | 5007 ft | 262 kts | 287° |
| 2026-05-07 13:25 | 47.41508 | -122.38827 | 5015 ft | 261 kts | 315° |
| 2026-05-07 13:25 | 47.43029 | -122.40224 | 5002 ft | 259 kts | 344° |
| 2026-05-07 13:25 | 47.44809 | -122.40547 | 5008 ft | 257 kts | 358° |
| 2026-05-07 13:25 | 47.46597 | -122.40588 | 5007 ft | 257 kts | 360° |
| 2026-05-07 13:26 | 47.48393 | -122.40605 | 5002 ft | 257 kts | 360° |
| 2026-05-07 13:26 | 47.50183 | -122.40615 | 4996 ft | 257 kts | 360° |
| 2026-05-07 13:26 | 47.51971 | -122.40545 | 4998 ft | 257 kts | 4° |
| 2026-05-07 13:26 | 47.53736 | -122.40339 | 4999 ft | 258 kts | 6° |
| 2026-05-07 13:27 | 47.55439 | -122.39571 | 4989 ft | 259 kts | 31° |
| 2026-05-07 13:27 | 47.56726 | -122.37717 | 5002 ft | 261 kts | 55° |
| 2026-05-07 13:27 | 47.57435 | -122.35257 | 4992 ft | 263 kts | 78° |
| 2026-05-07 13:27 | 47.57458 | -122.32549 | 4998 ft | 266 kts | 99° |
| 2026-05-07 13:28 | 47.56952 | -122.29907 | 5003 ft | 267 kts | 112° |
| 2026-05-07 13:28 | 47.56089 | -122.27491 | 4997 ft | 266 kts | 119° |
| 2026-05-07 13:28 | 47.55132 | -122.25124 | 5000 ft | 270 kts | 120° |
| 2026-05-07 13:28 | 47.54026 | -122.22871 | 4990 ft | 272 kts | 136° |
| 2026-05-07 13:29 | 47.52447 | -122.21353 | 4988 ft | 272 kts | 156° |
| 2026-05-07 13:29 | 47.50599 | -122.20758 | 4996 ft | 272 kts | 176° |
| 2026-05-07 13:29 | 47.48705 | -122.20843 | 4990 ft | 272 kts | 184° |
| 2026-05-07 13:29 | 47.46844 | -122.21057 | 4886 ft | 266 kts | 185° |
| 2026-05-07 13:30 | 47.45055 | -122.21349 | 4738 ft | 256 kts | 188° |
| 2026-05-07 13:30 | 47.43308 | -122.21775 | 4598 ft | 247 kts | 189° |
| 2026-05-07 13:30 | 47.41664 | -122.22196 | 4466 ft | 239 kts | 190° |
| 2026-05-07 13:30 | 47.40049 | -122.22615 | 4334 ft | 232 kts | 189° |
| 2026-05-07 13:31 | 47.38480 | -122.23027 | 4203 ft | 228 kts | 190° |
| 2026-05-07 13:31 | 47.36922 | -122.23440 | 4073 ft | 225 kts | 189° |
| 2026-05-07 13:31 | 47.35388 | -122.23852 | 3948 ft | 224 kts | 190° |
| 2026-05-07 13:31 | 47.33856 | -122.24260 | 3826 ft | 223 kts | 187° |
| 2026-05-07 13:32 | 47.32344 | -122.24037 | 3682 ft | 217 kts | 155° |
| 2026-05-07 13:32 | 47.31249 | -122.22683 | 3557 ft | 203 kts | 121° |
| 2026-05-07 13:32 | 47.30933 | -122.20762 | 3386 ft | 194 kts | 84° |
| 2026-05-07 13:32 | 47.31478 | -122.19023 | 3216 ft | 189 kts | 44° |
| 2026-05-07 13:33 | 47.32629 | -122.18177 | 3063 ft | 187 kts | 12° |
| 2026-05-07 13:33 | 47.33919 | -122.17831 | 2886 ft | 190 kts | 10° |
| 2026-05-07 13:33 | 47.35231 | -122.17524 | 2695 ft | 188 kts | 9° |
| 2026-05-07 13:33 | 47.36485 | -122.17235 | 2610 ft | 176 kts | 8° |
| 2026-05-07 13:34 | 47.37654 | -122.17405 | 2602 ft | 169 kts | 333° |
| 2026-05-07 13:34 | 47.39766 | -122.19053 | 2578 ft | 172 kts | 329° |
| 2026-05-07 13:34 | 47.40811 | -122.19934 | 2371 ft | 173 kts | 329° |
| 2026-05-07 13:35 | 47.41836 | -122.20803 | 2155 ft | 169 kts | 328° |
| 2026-05-07 13:35 | 47.42848 | -122.21659 | 1940 ft | 165 kts | 328° |
| 2026-05-07 13:35 | 47.43816 | -122.22478 | 1806 ft | 156 kts | 328° |
| 2026-05-07 13:35 | 47.44757 | -122.23275 | 1728 ft | 159 kts | 328° |
| 2026-05-07 13:36 | 47.45693 | -122.24066 | 1523 ft | 147 kts | 328° |
| 2026-05-07 13:36 | 47.46532 | -122.24775 | 1299 ft | 132 kts | 328° |
| 2026-05-07 13:36 | 47.47293 | -122.25420 | 1133 ft | 122 kts | 329° |
| 2026-05-07 13:36 | 47.48027 | -122.26040 | 980 ft | 124 kts | 329° |
| 2026-05-07 13:37 | 47.48799 | -122.26668 | 788 ft | 129 kts | 332° |
| 2026-05-07 13:37 | 47.49579 | -122.27337 | 622 ft | 131 kts | 329° |
| 2026-05-07 13:37 | 47.50383 | -122.28024 | 403 ft | 133 kts | 329° |
| 2026-05-07 13:37 | 47.51160 | -122.28692 | 216 ft | 127 kts | 329° |
| 2026-05-07 13:38 | 47.51907 | -122.29315 | 38 ft | 118 kts | 329° |
| 2026-05-07 13:38 | 47.52434 | -122.29766 | 25 ft | 63 kts | 329° |
| 2026-05-07 13:38 | 47.52709 | -122.29950 | 23 ft | 23 kts | 34° |
| 2026-05-07 13:38 | 47.52717 | -122.29842 | 25 ft | 7 kts | 150° |
| 2026-05-07 13:39 | 47.52670 | -122.29801 | 26 ft | 8 kts | 150° |
| 2026-05-07 13:39 | 47.52618 | -122.29751 | 26 ft | 10 kts | 121° |
| 2026-05-07 13:39 | 47.52646 | -122.29657 | 26 ft | 10 kts | 44° |
| 2026-05-07 13:39 | 47.52669 | -122.29660 | 26 ft | 0 kts | 331° |